Newark, DE (19702)

3:53 AM EDT on October 24, 2014 (GMT -0400)
La Grange | Change Station
CLOSE
Current Station
Personal Weather Station
Location: Glasgow, DE
Elevation: 84 ft
Nearby Weather Stations

Elev 84 ft 39.61 °N, 75.76 °W | Updated 7 minutes ago

Overcast
Overcast
53.7 °F
Feels Like 53.7 °F
N
0.0
Wind Variable Wind from North
Gusts 1.0 mph

Today
High -- | Low -- °F
--% Chance of Precip.
Yesterday
High -- | Low -- °F
Precip. -- in
7:22 AM 6:11 PM
New Moon, 0% visible
Pressure 29.85 in
Visibility 10.0 miles
Clouds Overcast 3600 ft
Dew Point 48 °F
Humidity 80%
Rainfall 0.00 in
Snow Depth Not available.
UV 0 out of 12
Pollen .20 out of 12
Air Quality Not available.
Flu Activity Sporadic
METAR KILG 240651Z 33010KT 10SM OVC036 14/07 A2985 RMK AO2 SLP107 T01390072

More Conditions Fewer Conditions

Pressure 29.85 in
Visibility 10.0 miles
Clouds Overcast 3600 ft
Dew Point 48 °F
Humidity 80%
Rainfall 0.00 in
Snow Depth Not available.
UV 0 out of 12
Pollen .20 out of 12
Air Quality Not available.
Flu Activity Sporadic
METAR KILG 240651Z 33010KT 10SM OVC036 14/07 A2985 RMK AO2 SLP107 T01390072

More Conditions Fewer Conditions

10-Day Weather Forecast

Almanac

Astronomy

Oct. 24, 2014 Rise Set
Actual Time 7:22 AM EDT 6:11 PM EDT
Civil Twilight 6:54 AM EDT 6:38 PM EDT
Nautical Twilight 6:23 AM EDT 7:09 PM EDT
Astronomical Twilight 5:52 AM EDT 7:41 PM EDT
Moon 7:59 AM EDT 6:49 PM EDT
Length of Visible Light 11h 43m
Length of Day
10h 48m
Tomorrow will be 2m 24s shorter.
New Moon, 0% of the Moon is Illuminated
Today
New Moon
Oct 30
First Quarter
Nov 6
Full
Nov 14
Last Quarter
Nov 22
New

Today's Extremes

State Highs State Lows

Community

WunderPhotos

Upload Photos

1,764,512 photos uploaded!

WunderBlogs® & News

Nearby

Snow Depth

Station Depth Elevation
No new snow has been reported.

Earthquake Activity

City Distance Mag. Time & Date
No recent earthquake activity has been reported nearby.
Minimum magnitude displayed is 2.5.

Coastal Water Temperatures

Place Temperature
Cape May, NJ 62.1 °F
Reedy Point, DE 61.0 °F
Delaware City, DE 61.0 °F
Marcus Hook, PA 62.1 °F

Nearby Weather Stations